Back to Top

Language: 

My Weather Underground Personal Weather Station Historical Data with Graphs...

Delerius Weather Station Historical Data
Daily Summary for August 23, 2017 Units:  English    Metric   Both
« Previous Day
Next Day »
Daily Weekly Monthly Yearly Custom
  High: Low: Average:
Temperature: 71.2 °F 56.3 °F 63.4 °F
Dew Point: 63.2 °F 52.8 °F 58.4 °F
Humidity: 96 % 62 % 85 %
Wind Speed: 10.0 mph 0.0 mph 4.6 mph
Wind Gust: 18.0 mph - -
Wind:- - SSW
Pressure: 29.95 in 29.83 in -
Precipitation: 0.30 in    
Historical Graphs
 
 
Tabular Data for August 23, 2017
Time Temperature Dew Point Pressure Wind Wind Speed Wind Gust Humidity Rainfall Rate (Hourly) solar Conditions
00:03 64.0 °F 61.0 °F 29.95 in SE 4.0 mph 8.0 mph 90 % 0.00 in 0 W/m2
00:08 64.0 °F 61.0 °F 29.95 in SE 4.0 mph 8.0 mph 90 % 0.00 in 0 W/m2
00:13 64.0 °F 61.0 °F 29.95 in SE 4.0 mph 8.0 mph 90 % 0.00 in 0 W/m2
00:18 63.9 °F 60.9 °F 29.95 in SE 4.0 mph 8.0 mph 90 % 0.00 in 0 W/m2
00:23 63.9 °F 60.9 °F 29.95 in SE 4.0 mph 7.0 mph 90 % 0.00 in 0 W/m2
00:28 63.7 °F 61.0 °F 29.95 in SE 4.0 mph 8.0 mph 91 % 0.00 in 0 W/m2
00:33 63.7 °F 61.0 °F 29.95 in SE 4.0 mph 8.0 mph 91 % 0.00 in 0 W/m2
00:38 63.7 °F 61.0 °F 29.95 in SE 3.0 mph 8.0 mph 91 % 0.00 in 0 W/m2
00:43 63.7 °F 61.0 °F 29.95 in SE 4.0 mph 10.0 mph 91 % 0.00 in 0 W/m2
00:48 63.5 °F 60.8 °F 29.95 in SE 6.0 mph 10.0 mph 91 % 0.00 in 0 W/m2
00:54 63.5 °F 60.8 °F 29.95 in SE 6.0 mph 10.0 mph 91 % 0.00 in 0 W/m2
00:58 63.5 °F 60.8 °F 29.95 in SE 6.0 mph 13.0 mph 91 % 0.00 in 0 W/m2
01:03 63.3 °F 60.3 °F 29.95 in SE 7.0 mph 13.0 mph 90 % 0.00 in 0 W/m2
01:08 63.3 °F 60.3 °F 29.95 in SE 6.0 mph 9.0 mph 90 % 0.00 in 0 W/m2
01:13 63.3 °F 60.3 °F 29.95 in SE 5.0 mph 9.0 mph 90 % 0.00 in 0 W/m2
01:18 63.3 °F 60.6 °F 29.95 in SE 4.0 mph 9.0 mph 91 % 0.00 in 0 W/m2
01:23 63.1 °F 60.5 °F 29.94 in SE 5.0 mph 9.0 mph 91 % 0.00 in 0 W/m2
01:28 63.1 °F 60.5 °F 29.94 in SE 5.0 mph 11.0 mph 91 % 0.00 in 0 W/m2
01:33 63.0 °F 60.3 °F 29.94 in SE 6.0 mph 11.0 mph 91 % 0.00 in 0 W/m2
01:38 63.0 °F 60.3 °F 29.94 in SE 7.0 mph 11.0 mph 91 % 0.00 in 0 W/m2
01:43 62.8 °F 60.1 °F 29.94 in SE 7.0 mph 11.0 mph 91 % 0.00 in 0 W/m2
01:44 62.8 °F 60.1 °F 29.94 in SE 7.0 mph 11.0 mph 91 % 0.00 in 0 W/m2
01:49 62.8 °F 60.1 °F 29.94 in SE 7.0 mph 10.0 mph 91 % 0.00 in 0 W/m2
01:54 62.8 °F 60.1 °F 29.94 in SSE 6.0 mph 10.0 mph 91 % 0.00 in 0 W/m2
01:59 62.6 °F 59.9 °F 29.93 in SSE 7.0 mph 11.0 mph 91 % 0.00 in 0 W/m2
02:04 62.6 °F 59.9 °F 29.93 in SE 6.0 mph 11.0 mph 91 % 0.00 in 0 W/m2
02:09 62.4 °F 59.8 °F 29.93 in SE 6.0 mph 10.0 mph 91 % 0.00 in 0 W/m2
02:14 62.4 °F 59.8 °F 29.93 in SE 6.0 mph 10.0 mph 91 % 0.00 in 0 W/m2
02:19 62.2 °F 59.9 °F 29.93 in SE 5.0 mph 10.0 mph 92 % 0.00 in 0 W/m2
02:24 62.2 °F 59.6 °F 29.92 in SE 6.0 mph 9.0 mph 91 % 0.00 in 0 W/m2
02:29 62.1 °F 59.7 °F 29.92 in SE 5.0 mph 9.0 mph 92 % 0.00 in 0 W/m2
02:34 62.1 °F 59.7 °F 29.92 in SE 5.0 mph 9.0 mph 92 % 0.00 in 0 W/m2
02:39 61.9 °F 59.5 °F 29.92 in SE 5.0 mph 9.0 mph 92 % 0.00 in 0 W/m2
02:44 61.9 °F 59.5 °F 29.92 in SE 5.0 mph 9.0 mph 92 % 0.00 in 0 W/m2
02:49 61.7 °F 59.4 °F 29.92 in SE 4.0 mph 9.0 mph 92 % 0.00 in 0 W/m2
02:54 61.5 °F 59.2 °F 29.92 in ESE 4.0 mph 8.0 mph 92 % 0.00 in 0 W/m2
03:04 61.3 °F 59.3 °F 29.91 in ESE 5.0 mph 8.0 mph 93 % 0.00 in 0 W/m2
03:09 61.3 °F 59.3 °F 29.91 in ESE 5.0 mph 7.0 mph 93 % 0.00 in 0 W/m2
03:14 61.3 °F 59.3 °F 29.91 in ESE 4.0 mph 7.0 mph 93 % 0.00 in 0 W/m2
03:19 61.2 °F 59.1 °F 29.91 in ESE 4.0 mph 7.0 mph 93 % 0.00 in 0 W/m2
03:24 61.2 °F 59.1 °F 29.91 in ESE 4.0 mph 8.0 mph 93 % 0.00 in 0 W/m2
03:29 61.2 °F 59.1 °F 29.90 in East 4.0 mph 8.0 mph 93 % 0.00 in 0 W/m2
03:34 61.2 °F 59.1 °F 29.90 in East 3.0 mph 7.0 mph 93 % 0.00 in 0 W/m2
03:39 61.2 °F 59.1 °F 29.90 in East 2.0 mph 7.0 mph 93 % 0.00 in 0 W/m2
03:44 61.0 °F 58.9 °F 29.90 in ESE 2.0 mph 5.0 mph 93 % 0.00 in 0 W/m2
03:49 61.0 °F 58.9 °F 29.90 in ESE 3.0 mph 6.0 mph 93 % 0.00 in 0 W/m2
03:54 61.0 °F 59.2 °F 29.90 in ESE 4.0 mph 7.0 mph 94 % 0.00 in 0 W/m2
03:59 61.0 °F 59.2 °F 29.89 in SE 5.0 mph 9.0 mph 94 % 0.00 in 0 W/m2
04:04 61.0 °F 59.2 °F 29.90 in SE 5.0 mph 9.0 mph 94 % 0.00 in 0 W/m2
04:09 60.8 °F 59.1 °F 29.90 in ESE 5.0 mph 9.0 mph 94 % 0.00 in 0 W/m2
04:14 60.8 °F 59.1 °F 29.89 in ESE 4.0 mph 8.0 mph 94 % 0.00 in 0 W/m2
04:19 60.8 °F 59.1 °F 29.90 in SE 4.0 mph 8.0 mph 94 % 0.00 in 0 W/m2
04:23 60.8 °F 59.1 °F 29.89 in SE 3.0 mph 8.0 mph 94 % 0.00 in 0 W/m2
04:28 60.8 °F 59.1 °F 29.89 in SE 4.0 mph 7.0 mph 94 % 0.00 in 0 W/m2
04:33 60.6 °F 58.9 °F 29.89 in SE 5.0 mph 8.0 mph 94 % 0.00 in 0 W/m2
04:38 60.6 °F 58.9 °F 29.88 in SE 6.0 mph 9.0 mph 94 % 0.00 in 0 W/m2
04:43 60.6 °F 58.9 °F 29.88 in SE 6.0 mph 10.0 mph 94 % 0.00 in 0 W/m2
04:48 60.6 °F 58.9 °F 29.88 in SE 6.0 mph 10.0 mph 94 % 0.00 in 0 W/m2
04:53 60.6 °F 58.9 °F 29.88 in SE 5.0 mph 10.0 mph 94 % 0.00 in 0 W/m2
04:58 60.6 °F 58.9 °F 29.88 in ESE 4.0 mph 8.0 mph 94 % 0.00 in 0 W/m2
04:59 60.6 °F 58.9 °F 29.88 in ESE 4.0 mph 8.0 mph 94 % 0.00 in 0 W/m2
05:04 60.6 °F 58.9 °F 29.88 in ESE 3.0 mph 7.0 mph 94 % 0.00 in 0 W/m2
05:09 60.6 °F 58.9 °F 29.88 in ESE 3.0 mph 7.0 mph 94 % 0.00 in 0 W/m2
05:14 60.6 °F 58.9 °F 29.88 in ESE 4.0 mph 7.0 mph 94 % 0.00 in 0 W/m2
05:19 60.6 °F 58.9 °F 29.87 in ESE 4.0 mph 8.0 mph 94 % 0.00 in 0 W/m2
05:24 60.4 °F 58.7 °F 29.87 in ESE 5.0 mph 9.0 mph 94 % 0.00 in 0 W/m2
05:29 60.4 °F 58.7 °F 29.87 in ESE 5.0 mph 9.0 mph 94 % 0.00 in 0 W/m2
05:34 60.4 °F 58.7 °F 29.87 in ESE 6.0 mph 10.0 mph 94 % 0.00 in 0 W/m2
05:39 60.3 °F 58.5 °F 29.87 in ESE 6.0 mph 10.0 mph 94 % 0.00 in 0 W/m2
05:41 60.3 °F 58.5 °F 29.87 in ESE 6.0 mph 10.0 mph 94 % 0.00 in 0 W/m2
05:46 60.3 °F 58.5 °F 29.87 in ESE 6.0 mph 10.0 mph 94 % 0.00 in 0 W/m2
05:51 60.3 °F 58.5 °F 29.87 in ESE 4.0 mph 8.0 mph 94 % 0.00 in 0 W/m2
05:56 60.3 °F 58.5 °F 29.87 in ESE 2.0 mph 6.0 mph 94 % 0.00 in 0 W/m2
06:01 60.1 °F 58.3 °F 29.87 in ESE 2.0 mph 7.0 mph 94 % 0.00 in 0 W/m2
06:06 60.1 °F 58.3 °F 29.87 in ESE 4.0 mph 9.0 mph 94 % 0.00 in 0 W/m2
06:11 60.1 °F 58.3 °F 29.87 in SE 4.0 mph 9.0 mph 94 % 0.00 in 0 W/m2
06:16 60.3 °F 58.5 °F 29.87 in SE 4.0 mph 8.0 mph 94 % 0.00 in 5 W/m2
06:17 60.1 °F 58.3 °F 29.87 in SE 4.0 mph 8.0 mph 94 % 0.00 in 5 W/m2
06:22 60.1 °F 58.3 °F 29.87 in SE 5.0 mph 9.0 mph 94 % 0.00 in 5 W/m2
06:27 60.1 °F 58.3 °F 29.87 in SE 4.0 mph 9.0 mph 94 % 0.00 in 7 W/m2
06:32 60.1 °F 58.3 °F 29.87 in SE 3.0 mph 6.0 mph 94 % 0.00 in 7 W/m2
06:37 60.1 °F 58.3 °F 29.87 in SE 3.0 mph 6.0 mph 94 % 0.00 in 12 W/m2
06:42 60.1 °F 58.3 °F 29.86 in SE 4.0 mph 6.0 mph 94 % 0.00 in 19 W/m2
06:47 60.1 °F 58.3 °F 29.87 in SE 4.0 mph 7.0 mph 94 % 0.00 in 19 W/m2
06:52 60.1 °F 58.6 °F 29.87 in SE 3.0 mph 7.0 mph 95 % 0.00 in 25 W/m2
06:57 60.1 °F 58.3 °F 29.87 in SSE 3.0 mph 7.0 mph 94 % 0.00 in 23 W/m2
07:02 60.1 °F 58.6 °F 29.87 in SE 3.0 mph 7.0 mph 95 % 0.00 in 35 W/m2
07:07 60.1 °F 58.6 °F 29.86 in SE 2.0 mph 5.0 mph 95 % 0.00 in 70 W/m2
07:12 60.1 °F 58.6 °F 29.87 in SE 2.0 mph 6.0 mph 95 % 0.00 in 65 W/m2
07:17 60.3 °F 58.8 °F 29.86 in SE 2.0 mph 6.0 mph 95 % 0.00 in 74 W/m2
07:22 60.3 °F 58.8 °F 29.86 in SE 2.0 mph 5.0 mph 95 % 0.00 in 98 W/m2
07:27 60.3 °F 58.8 °F 29.86 in SSE 3.0 mph 6.0 mph 95 % 0.00 in 91 W/m2
07:32 60.4 °F 59.0 °F 29.86 in SSE 4.0 mph 9.0 mph 95 % 0.00 in 69 W/m2
07:37 60.4 °F 58.7 °F 29.86 in SE 4.0 mph 9.0 mph 94 % 0.00 in 67 W/m2
07:42 60.4 °F 58.7 °F 29.86 in SE 4.0 mph 7.0 mph 94 % 0.00 in 60 W/m2
07:47 60.6 °F 58.9 °F 29.86 in SE 3.0 mph 6.0 mph 94 % 0.00 in 67 W/m2
07:52 60.6 °F 58.9 °F 29.85 in SE 3.0 mph 8.0 mph 94 % 0.00 in 127 W/m2
07:57 60.6 °F 58.9 °F 29.85 in SE 2.0 mph 8.0 mph 94 % 0.00 in 142 W/m2
08:02 61.0 °F 59.2 °F 29.85 in ESE 1.0 mph 5.0 mph 94 % 0.00 in 171 W/m2
08:07 61.2 °F 59.4 °F 29.85 in SE 1.0 mph 5.0 mph 94 % 0.00 in 153 W/m2
08:12 61.2 °F 59.1 °F 29.85 in SE 2.0 mph 5.0 mph 93 % 0.00 in 104 W/m2
08:17 61.3 °F 59.6 °F 29.85 in SE 1.0 mph 5.0 mph 94 % 0.00 in 111 W/m2
08:22 61.5 °F 59.5 °F 29.85 in SE 2.0 mph 5.0 mph 93 % 0.00 in 70 W/m2
08:28 61.5 °F 59.5 °F 29.85 in SE 3.0 mph 6.0 mph 93 % 0.00 in 91 W/m2
08:33 61.7 °F 59.7 °F 29.85 in SE 3.0 mph 7.0 mph 93 % 0.00 in 81 W/m2
08:38 61.9 °F 59.8 °F 29.85 in SE 4.0 mph 7.0 mph 93 % 0.00 in 77 W/m2
08:43 61.9 °F 59.5 °F 29.85 in SE 4.0 mph 7.0 mph 92 % 0.00 in 72 W/m2
08:48 61.9 °F 59.5 °F 29.85 in SE 3.0 mph 7.0 mph 92 % 0.00 in 30 W/m2
08:53 61.9 °F 59.5 °F 29.85 in SE 4.0 mph 8.0 mph 92 % 0.00 in 33 W/m2
08:58 61.9 °F 59.5 °F 29.85 in SE 4.0 mph 8.0 mph 92 % 0.00 in 33 W/m2
09:03 61.9 °F 59.5 °F 29.84 in SE 3.0 mph 6.0 mph 92 % 0.00 in 54 W/m2
09:08 61.9 °F 59.5 °F 29.84 in SE 3.0 mph 5.0 mph 92 % 0.00 in 67 W/m2
09:13 62.1 °F 59.7 °F 29.84 in ESE 2.0 mph 5.0 mph 92 % 0.00 in 37 W/m2
09:18 62.1 °F 59.7 °F 29.84 in ESE 2.0 mph 6.0 mph 92 % 0.00 in 18 W/m2
09:23 62.1 °F 59.7 °F 29.85 in SSE 4.0 mph 8.0 mph 92 % 0.00 in 19 W/m2
09:28 62.1 °F 59.7 °F 29.84 in SSE 4.0 mph 8.0 mph 92 % 0.00 in 86 W/m2
09:33 62.1 °F 59.7 °F 29.84 in SE 2.0 mph 6.0 mph 92 % 0.00 in 37 W/m2
09:38 62.1 °F 59.7 °F 29.84 in SSE 4.0 mph 7.0 mph 92 % 0.00 in 12 W/m2
09:43 62.1 °F 59.7 °F 29.83 in SE 4.0 mph 8.0 mph 92 % 0.00 in 70 W/m2
09:48 62.1 °F 59.7 °F 29.84 in East 3.0 mph 8.0 mph 92 % 0.00 in 11 W/m2
09:53 62.1 °F 59.7 °F 29.86 in SSE 6.0 mph 14.0 mph 92 % 0.00 in 5 W/m2
09:58 62.2 °F 60.2 °F 29.84 in South 6.0 mph 14.0 mph 93 % 0.17 in 14 W/m2
10:03 62.1 °F 60.0 °F 29.84 in South 4.0 mph 8.0 mph 93 % 0.23 in 35 W/m2
10:08 61.9 °F 59.8 °F 29.85 in South 3.0 mph 7.0 mph 93 % 0.24 in 33 W/m2
10:13 61.9 °F 60.1 °F 29.84 in SE 1.0 mph 5.0 mph 94 % 0.29 in 72 W/m2
10:18 61.9 °F 60.1 °F 29.85 in Calm   4.0 mph 94 % 0.29 in 28 W/m2
10:23 61.9 °F 60.1 °F 29.85 in SSE 1.0 mph 5.0 mph 94 % 0.29 in 42 W/m2
10:28 61.9 °F 60.4 °F 29.84 in Calm   5.0 mph 95 % 0.30 in 56 W/m2
10:33 61.9 °F 60.4 °F 29.85 in Calm   1.0 mph 95 % 0.30 in 76 W/m2
10:38 62.1 °F 60.6 °F 29.84 in Calm     95 % 0.30 in 105 W/m2
10:43 62.2 °F 60.8 °F 29.84 in Calm     95 % 0.30 in 86 W/m2
10:48 62.2 °F 60.8 °F 29.85 in Calm     95 % 0.30 in 113 W/m2
10:53 62.4 °F 61.3 °F 29.85 in Calm   1.0 mph 96 % 0.26 in 144 W/m2
10:58 62.8 °F 61.6 °F 29.85 in Calm   1.0 mph 96 % 0.12 in 211 W/m2
11:03 63.1 °F 62.0 °F 29.85 in Calm   2.0 mph 96 % 0.07 in 107 W/m2
11:08 63.1 °F 62.0 °F 29.85 in Calm   2.0 mph 96 % 0.06 in 70 W/m2
11:13 63.1 °F 62.0 °F 29.85 in Calm   2.0 mph 96 % 0.01 in 72 W/m2
11:18 63.1 °F 62.0 °F 29.85 in Calm   1.0 mph 96 % 0.01 in 83 W/m2
11:23 63.3 °F 62.2 °F 29.84 in Calm     96 % 0.01 in 86 W/m2
11:28 63.5 °F 62.3 °F 29.84 in West 1.0 mph 9.0 mph 96 % 0.00 in 381 W/m2
11:33 63.9 °F 62.7 °F 29.85 in West 5.0 mph 12.0 mph 96 % 0.00 in 223 W/m2
11:38 64.0 °F 62.9 °F 29.84 in WNW 7.0 mph 12.0 mph 96 % 0.00 in 183 W/m2
11:43 64.0 °F 62.9 °F 29.85 in WNW 6.0 mph 12.0 mph 96 % 0.00 in 160 W/m2
11:48 64.0 °F 62.6 °F 29.85 in NW 5.0 mph 9.0 mph 95 % 0.00 in 123 W/m2
11:53 64.0 °F 62.6 °F 29.85 in WNW 5.0 mph 8.0 mph 95 % 0.00 in 40 W/m2
11:58 63.9 °F 62.4 °F 29.85 in NW 6.0 mph 11.0 mph 95 % 0.00 in 37 W/m2
12:03 63.7 °F 62.2 °F 29.85 in NW 5.0 mph 11.0 mph 95 % 0.00 in 51 W/m2
12:08 63.3 °F 61.6 °F 29.85 in NW 6.0 mph 12.0 mph 94 % 0.00 in 77 W/m2
12:13 63.1 °F 61.4 °F 29.85 in NW 5.0 mph 12.0 mph 94 % 0.00 in 135 W/m2
12:18 63.1 °F 61.7 °F 29.85 in WNW 4.0 mph 8.0 mph 95 % 0.00 in 167 W/m2
12:23 63.3 °F 61.6 °F 29.85 in WNW 5.0 mph 10.0 mph 94 % 0.00 in 118 W/m2
12:28 63.1 °F 61.4 °F 29.86 in WNW 7.0 mph 14.0 mph 94 % 0.00 in 134 W/m2
12:33 63.1 °F 61.1 °F 29.86 in WNW 8.0 mph 14.0 mph 93 % 0.00 in 121 W/m2
12:38 63.1 °F 61.1 °F 29.85 in WNW 7.0 mph 12.0 mph 93 % 0.00 in 352 W/m2
12:43 63.5 °F 61.7 °F 29.85 in WNW 6.0 mph 10.0 mph 94 % 0.00 in 543 W/m2
12:48 64.2 °F 62.5 °F 29.85 in West 5.0 mph 9.0 mph 94 % 0.00 in 573 W/m2
12:54 64.9 °F 62.9 °F 29.85 in WNW 5.0 mph 10.0 mph 93 % 0.00 in 851 W/m2
12:59 65.8 °F 63.1 °F 29.85 in WNW 7.0 mph 12.0 mph 91 % 0.00 in 940 W/m2
13:04 66.7 °F 62.7 °F 29.85 in WNW 8.0 mph 15.0 mph 87 % 0.00 in 940 W/m2
13:09 67.5 °F 62.8 °F 29.85 in WNW 9.0 mph 15.0 mph 85 % 0.00 in 812 W/m2
13:14 68.2 °F 63.2 °F 29.85 in WNW 8.0 mph 15.0 mph 84 % 0.00 in 749 W/m2
13:19 68.7 °F 63.0 °F 29.85 in WNW 7.0 mph 13.0 mph 82 % 0.00 in 605 W/m2
13:24 69.1 °F 63.0 °F 29.85 in WNW 7.0 mph 13.0 mph 81 % 0.00 in 596 W/m2
13:29 69.4 °F 62.6 °F 29.85 in WNW 6.0 mph 14.0 mph 79 % 0.00 in 406 W/m2
13:34 69.4 °F 61.5 °F 29.86 in West 7.0 mph 15.0 mph 76 % 0.00 in 408 W/m2
13:39 69.3 °F 61.0 °F 29.86 in West 9.0 mph 18.0 mph 75 % 0.00 in 269 W/m2
13:44 68.7 °F 59.7 °F 29.86 in WNW 9.0 mph 18.0 mph 73 % 0.00 in 338 W/m2
13:49 68.7 °F 60.1 °F 29.86 in WNW 9.0 mph 14.0 mph 74 % 0.00 in 445 W/m2
13:54 68.7 °F 60.1 °F 29.86 in WNW 8.0 mph 14.0 mph 74 % 0.00 in 601 W/m2
13:59 69.1 °F 59.7 °F 29.86 in WNW 8.0 mph 15.0 mph 72 % 0.00 in 353 W/m2
14:04 69.3 °F 59.5 °F 29.86 in WNW 9.0 mph 15.0 mph 71 % 0.00 in 531 W/m2
14:09 69.3 °F 59.1 °F 29.86 in WNW 9.0 mph 15.0 mph 70 % 0.00 in 374 W/m2
14:14 69.4 °F 59.6 °F 29.86 in WNW 7.0 mph 15.0 mph 71 % 0.00 in 485 W/m2
14:19 69.6 °F 59.0 °F 29.86 in WNW 7.0 mph 13.0 mph 69 % 0.00 in 396 W/m2
14:24 69.6 °F 58.2 °F 29.86 in WNW 8.0 mph 13.0 mph 67 % 0.00 in 494 W/m2
14:29 69.8 °F 59.2 °F 29.86 in WNW 6.0 mph 11.0 mph 69 % 0.00 in 239 W/m2
14:34 70.0 °F 58.9 °F 29.86 in West 6.0 mph 13.0 mph 68 % 0.00 in 301 W/m2
14:35 70.0 °F 58.9 °F 29.86 in West 6.0 mph 13.0 mph 68 % 0.00 in 301 W/m2
14:40 70.0 °F 59.3 °F 29.86 in West 7.0 mph 15.0 mph 69 % 0.00 in 285 W/m2
14:45 70.2 °F 59.1 °F 29.86 in WNW 8.0 mph 15.0 mph 68 % 0.00 in 814 W/m2
14:50 70.3 °F 59.3 °F 29.86 in WNW 8.0 mph 14.0 mph 68 % 0.00 in 278 W/m2
14:55 70.3 °F 58.9 °F 29.86 in WNW 8.0 mph 15.0 mph 67 % 0.00 in 413 W/m2
15:00 70.2 °F 58.3 °F 29.86 in NW 8.0 mph 15.0 mph 66 % 0.00 in 265 W/m2
15:05 70.2 °F 58.3 °F 29.86 in WNW 8.0 mph 15.0 mph 66 % 0.00 in 241 W/m2
15:10 70.0 °F 58.1 °F 29.87 in WNW 8.0 mph 15.0 mph 66 % 0.00 in 348 W/m2
15:15 70.0 °F 58.1 °F 29.86 in West 8.0 mph 15.0 mph 66 % 0.00 in 373 W/m2
15:20 70.3 °F 58.0 °F 29.87 in WNW 8.0 mph 13.0 mph 65 % 0.00 in 336 W/m2
15:25 70.7 °F 58.4 °F 29.87 in WNW 9.0 mph 15.0 mph 65 % 0.00 in 279 W/m2
15:30 70.5 °F 57.8 °F 29.87 in WNW 9.0 mph 15.0 mph 64 % 0.00 in 302 W/m2
15:35 70.3 °F 57.6 °F 29.87 in WNW 8.0 mph 13.0 mph 64 % 0.00 in 381 W/m2
15:40 70.5 °F 58.2 °F 29.87 in WNW 9.0 mph 14.0 mph 65 % 0.00 in 700 W/m2
15:45 71.1 °F 57.8 °F 29.86 in WNW 9.0 mph 14.0 mph 63 % 0.00 in 738 W/m2
15:50 71.2 °F 58.0 °F 29.87 in WNW 9.0 mph 14.0 mph 63 % 0.00 in 246 W/m2
15:55 71.1 °F 57.8 °F 29.87 in WNW 8.0 mph 14.0 mph 63 % 0.00 in 315 W/m2
16:00 70.9 °F 58.1 °F 29.87 in WNW 7.0 mph 12.0 mph 64 % 0.00 in 341 W/m2
16:05 70.5 °F 56.9 °F 29.87 in WNW 9.0 mph 18.0 mph 62 % 0.00 in 649 W/m2
16:10 70.7 °F 57.5 °F 29.87 in WNW 10.0 mph 18.0 mph 63 % 0.00 in 244 W/m2
16:15 70.5 °F 57.3 °F 29.87 in WNW 9.0 mph 14.0 mph 63 % 0.00 in 285 W/m2
16:20 70.3 °F 57.1 °F 29.87 in WNW 8.0 mph 16.0 mph 63 % 0.00 in 376 W/m2
16:25 70.5 °F 57.8 °F 29.87 in WNW 8.0 mph 16.0 mph 64 % 0.00 in 606 W/m2
16:30 70.7 °F 57.5 °F 29.86 in WNW 7.0 mph 13.0 mph 63 % 0.00 in 230 W/m2
16:35 70.7 °F 57.9 °F 29.87 in WNW 6.0 mph 12.0 mph 64 % 0.00 in 276 W/m2
16:40 70.9 °F 57.7 °F 29.87 in WNW 8.0 mph 18.0 mph 63 % 0.00 in 591 W/m2
16:45 70.7 °F 57.5 °F 29.87 in WNW 9.0 mph 18.0 mph 63 % 0.00 in 167 W/m2
16:50 70.2 °F 57.0 °F 29.87 in WNW 9.0 mph 14.0 mph 63 % 0.00 in 163 W/m2
16:55 69.8 °F 57.1 °F 29.87 in WNW 9.0 mph 14.0 mph 64 % 0.00 in 148 W/m2
17:00 69.4 °F 57.2 °F 29.87 in WNW 9.0 mph 14.0 mph 65 % 0.00 in 225 W/m2
17:05 69.4 °F 57.2 °F 29.87 in WNW 9.0 mph 13.0 mph 65 % 0.00 in 171 W/m2
17:10 69.3 °F 57.4 °F 29.87 in WNW 9.0 mph 13.0 mph 66 % 0.00 in 135 W/m2
17:15 68.7 °F 57.3 °F 29.87 in WNW 8.0 mph 13.0 mph 67 % 0.00 in 160 W/m2
17:20 68.5 °F 57.6 °F 29.87 in WNW 7.0 mph 11.0 mph 68 % 0.00 in 139 W/m2
17:25 68.4 °F 57.4 °F 29.87 in WNW 7.0 mph 13.0 mph 68 % 0.00 in 116 W/m2
17:30 68.0 °F 57.0 °F 29.87 in West 8.0 mph 13.0 mph 68 % 0.00 in 158 W/m2
17:31 68.0 °F 57.0 °F 29.87 in West 8.0 mph 13.0 mph 68 % 0.00 in 174 W/m2
17:36 67.8 °F 57.3 °F 29.87 in West 8.0 mph 14.0 mph 69 % 0.00 in 468 W/m2
17:41 68.2 °F 57.6 °F 29.87 in West 7.0 mph 14.0 mph 69 % 0.00 in 199 W/m2
17:46 68.4 °F 57.4 °F 29.87 in West 7.0 mph 14.0 mph 68 % 0.00 in 127 W/m2
17:51 68.2 °F 57.2 °F 29.87 in West 8.0 mph 14.0 mph 68 % 0.00 in 120 W/m2
17:56 67.8 °F 56.9 °F 29.87 in West 7.0 mph 12.0 mph 68 % 0.00 in 123 W/m2
18:01 67.8 °F 57.3 °F 29.87 in West 6.0 mph 12.0 mph 69 % 0.00 in 139 W/m2
18:06 67.6 °F 57.1 °F 29.87 in West 7.0 mph 13.0 mph 69 % 0.00 in 195 W/m2
18:11 67.8 °F 57.3 °F 29.87 in WNW 7.0 mph 13.0 mph 69 % 0.00 in 323 W/m2
18:16 68.4 °F 57.4 °F 29.87 in WNW 7.0 mph 12.0 mph 68 % 0.00 in 227 W/m2
18:21 68.2 °F 56.8 °F 29.87 in West 8.0 mph 14.0 mph 67 % 0.00 in 83 W/m2
18:26 67.6 °F 56.7 °F 29.87 in West 8.0 mph 14.0 mph 68 % 0.00 in 72 W/m2
18:31 67.5 °F 57.3 °F 29.87 in West 6.0 mph 11.0 mph 70 % 0.00 in 100 W/m2
18:36 67.5 °F 57.3 °F 29.87 in West 5.0 mph 10.0 mph 70 % 0.00 in 230 W/m2
18:41 67.6 °F 57.1 °F 29.87 in West 6.0 mph 12.0 mph 69 % 0.00 in 183 W/m2
18:46 67.6 °F 56.3 °F 29.87 in West 8.0 mph 14.0 mph 67 % 0.00 in 100 W/m2
18:51 67.5 °F 55.7 °F 29.87 in West 8.0 mph 14.0 mph 66 % 0.00 in 130 W/m2
18:56 67.3 °F 55.5 °F 29.87 in WSW 7.0 mph 11.0 mph 66 % 0.00 in 121 W/m2
19:01 66.9 °F 55.6 °F 29.87 in WSW 6.0 mph 10.0 mph 67 % 0.00 in 109 W/m2
19:06 66.9 °F 56.0 °F 29.87 in WSW 6.0 mph 9.0 mph 68 % 0.00 in 93 W/m2
19:16 66.4 °F 55.9 °F 29.87 in WSW 6.0 mph 10.0 mph 69 % 0.00 in 42 W/m2
19:21 66.0 °F 56.0 °F 29.87 in WSW 5.0 mph 9.0 mph 70 % 0.00 in 69 W/m2
19:31 65.7 °F 56.0 °F 29.87 in West 4.0 mph 8.0 mph 71 % 0.00 in 42 W/m2
19:36 65.3 °F 56.0 °F 29.87 in West 4.0 mph 7.0 mph 72 % 0.00 in 25 W/m2
19:41 65.1 °F 56.2 °F 29.87 in WSW 3.0 mph 6.0 mph 73 % 0.00 in 21 W/m2
19:46 64.8 °F 55.9 °F 29.88 in WSW 4.0 mph 8.0 mph 73 % 0.00 in 18 W/m2
19:51 64.6 °F 56.1 °F 29.87 in WSW 3.0 mph 8.0 mph 74 % 0.00 in 14 W/m2
19:56 64.2 °F 55.8 °F 29.87 in WSW 1.0 mph 5.0 mph 74 % 0.00 in 11 W/m2
20:01 64.0 °F 56.0 °F 29.87 in WSW 1.0 mph 4.0 mph 75 % 0.00 in 7 W/m2
20:06 63.7 °F 56.0 °F 29.87 in Calm   3.0 mph 76 % 0.00 in 5 W/m2
20:11 63.3 °F 55.6 °F 29.87 in WSW 1.0 mph 3.0 mph 76 % 0.00 in 0 W/m2
20:16 63.0 °F 55.6 °F 29.88 in WSW 1.0 mph 4.0 mph 77 % 0.00 in 0 W/m2
20:21 62.6 °F 55.6 °F 29.88 in WSW 3.0 mph 5.0 mph 78 % 0.00 in 0 W/m2
20:26 62.2 °F 55.6 °F 29.88 in WSW 2.0 mph 6.0 mph 79 % 0.00 in 0 W/m2
20:31 61.9 °F 55.3 °F 29.88 in WSW 2.0 mph 6.0 mph 79 % 0.00 in 0 W/m2
20:36 61.5 °F 55.3 °F 29.88 in WSW 1.0 mph 5.0 mph 80 % 0.00 in 0 W/m2
20:41 61.2 °F 54.9 °F 29.88 in WSW 1.0 mph 4.0 mph 80 % 0.00 in 0 W/m2
20:46 61.0 °F 55.1 °F 29.89 in WSW 1.0 mph 4.0 mph 81 % 0.00 in 0 W/m2
20:51 60.6 °F 54.8 °F 29.89 in Calm   3.0 mph 81 % 0.00 in 0 W/m2
20:56 60.4 °F 54.9 °F 29.89 in WSW 1.0 mph 5.0 mph 82 % 0.00 in 0 W/m2
21:02 60.1 °F 54.9 °F 29.89 in West 3.0 mph 8.0 mph 83 % 0.00 in 0 W/m2
21:07 59.9 °F 55.1 °F 29.89 in WNW 5.0 mph 8.0 mph 84 % 0.00 in 0 W/m2
21:12 59.9 °F 55.1 °F 29.89 in WNW 5.0 mph 8.0 mph 84 % 0.00 in 0 W/m2
21:17 59.7 °F 54.9 °F 29.89 in West 4.0 mph 8.0 mph 84 % 0.00 in 0 W/m2
21:22 59.5 °F 55.0 °F 29.89 in West 4.0 mph 6.0 mph 85 % 0.00 in 0 W/m2
21:27 59.4 °F 54.8 °F 29.90 in West 4.0 mph 6.0 mph 85 % 0.00 in 0 W/m2
21:32 59.2 °F 54.7 °F 29.90 in West 3.0 mph 6.0 mph 85 % 0.00 in 0 W/m2
21:37 58.8 °F 54.6 °F 29.90 in West 4.0 mph 8.0 mph 86 % 0.00 in 0 W/m2
21:42 58.6 °F 54.5 °F 29.90 in West 5.0 mph 8.0 mph 86 % 0.00 in 0 W/m2
21:47 58.5 °F 54.3 °F 29.90 in West 5.0 mph 7.0 mph 86 % 0.00 in 0 W/m2
21:52 58.5 °F 54.3 °F 29.90 in West 4.0 mph 7.0 mph 86 % 0.00 in 0 W/m2
21:57 58.5 °F 54.3 °F 29.90 in West 3.0 mph 7.0 mph 86 % 0.00 in 0 W/m2
22:02 58.3 °F 54.1 °F 29.90 in West 2.0 mph 5.0 mph 86 % 0.00 in 0 W/m2
22:07 58.1 °F 53.9 °F 29.90 in West 2.0 mph 5.0 mph 86 % 0.00 in 0 W/m2
22:12 57.9 °F 54.1 °F 29.90 in WNW 3.0 mph 7.0 mph 87 % 0.00 in 0 W/m2
22:17 57.9 °F 54.1 °F 29.90 in WNW 4.0 mph 7.0 mph 87 % 0.00 in 0 W/m2
22:22 57.9 °F 54.1 °F 29.90 in WNW 4.0 mph 6.0 mph 87 % 0.00 in 0 W/m2
22:27 57.9 °F 53.8 °F 29.90 in WNW 2.0 mph 6.0 mph 86 % 0.00 in 0 W/m2
22:32 57.9 °F 53.8 °F 29.90 in WNW 1.0 mph 4.0 mph 86 % 0.00 in 0 W/m2
22:37 57.7 °F 53.6 °F 29.90 in Calm   2.0 mph 86 % 0.00 in 0 W/m2
22:42 57.6 °F 53.4 °F 29.90 in Calm   5.0 mph 86 % 0.00 in 0 W/m2
22:47 57.4 °F 53.2 °F 29.90 in Calm   5.0 mph 86 % 0.00 in 0 W/m2
22:52 57.4 °F 53.5 °F 29.90 in Calm   2.0 mph 87 % 0.00 in 0 W/m2
22:57 57.2 °F 53.4 °F 29.90 in Calm   5.0 mph 87 % 0.00 in 0 W/m2
23:02 57.0 °F 53.2 °F 29.91 in Calm   5.0 mph 87 % 0.00 in 0 W/m2
23:07 56.8 °F 53.0 °F 29.91 in NE 1.0 mph 4.0 mph 87 % 0.00 in 0 W/m2
23:12 56.8 °F 53.0 °F 29.91 in ENE 1.0 mph 4.0 mph 87 % 0.00 in 0 W/m2
23:17 56.8 °F 53.0 °F 29.91 in ENE 1.0 mph 3.0 mph 87 % 0.00 in 0 W/m2
23:22 56.8 °F 53.0 °F 29.91 in Calm   2.0 mph 87 % 0.00 in 0 W/m2
23:27 56.7 °F 52.8 °F 29.91 in Calm   5.0 mph 87 % 0.00 in 0 W/m2
23:32 56.7 °F 53.1 °F 29.91 in ENE 1.0 mph 5.0 mph 88 % 0.00 in 0 W/m2
23:37 56.5 °F 53.0 °F 29.91 in ENE 1.0 mph 5.0 mph 88 % 0.00 in 0 W/m2
23:42 56.3 °F 52.8 °F 29.91 in Calm   2.0 mph 88 % 0.00 in 0 W/m2
23:53 56.3 °F 52.8 °F 29.91 in NE 1.0 mph 5.0 mph 88 % 0.00 in 0 W/m2
23:58 56.3 °F 52.8 °F 29.91 in Calm   5.0 mph 88 % 0.00 in 0 W/m2
Delerius-Weather
Compliments of Weather Underground - 2.25 mb

Data updates at regular intervals.